createdAt,value
2024-01-27T00:00:48.701Z,5.95
2024-01-27T00:01:48.871Z,5.95
2024-01-27T00:02:49.161Z,5.94
2024-01-27T00:03:49.178Z,5.98
2024-01-27T00:04:49.427Z,5.98
2024-01-27T00:05:49.647Z,5.97
2024-01-27T00:06:49.853Z,5.95
2024-01-27T00:07:49.891Z,5.95
2024-01-27T00:08:50.125Z,5.98
2024-01-27T00:09:50.289Z,5.99
2024-01-27T00:10:50.498Z,5.99
2024-01-27T00:11:50.682Z,5.97
2024-01-27T00:12:50.870Z,5.95
2024-01-27T00:13:51.057Z,5.95
2024-01-27T00:14:51.271Z,5.97
2024-01-27T00:15:51.447Z,5.97
2024-01-27T00:16:51.647Z,5.95
2024-01-27T00:17:51.928Z,5.92
2024-01-27T00:18:52.183Z,5.90
2024-01-27T00:19:52.205Z,5.92
2024-01-27T00:20:52.435Z,5.95
2024-01-27T00:21:52.592Z,5.95
2024-01-27T00:22:52.796Z,5.95
2024-01-27T00:23:53.061Z,5.97
2024-01-27T00:24:53.114Z,5.98
2024-01-27T00:25:53.259Z,5.98
2024-01-27T00:26:53.632Z,5.99
2024-01-27T00:27:53.649Z,6.06
2024-01-27T00:28:53.805Z,6.07
2024-01-27T00:29:53.999Z,6.09
2024-01-27T00:30:54.269Z,6.07
2024-01-27T00:31:54.350Z,6.09
2024-01-27T00:32:55.552Z,6.10
2024-01-27T00:33:54.897Z,6.10
2024-01-27T00:34:54.987Z,6.09
2024-01-27T00:35:55.180Z,6.12
2024-01-27T00:36:55.320Z,6.10
2024-01-27T00:37:55.519Z,6.09
2024-01-27T00:38:55.722Z,6.05
2024-01-27T00:39:55.891Z,6.06
2024-01-27T00:40:56.078Z,6.05
2024-01-27T00:41:56.283Z,6.01
2024-01-27T00:42:56.488Z,6.05
2024-01-27T00:43:56.662Z,6.02
2024-01-27T00:44:56.903Z,6.05
2024-01-27T00:45:57.028Z,6.02
2024-01-27T00:46:57.206Z,6.02
2024-01-27T00:47:57.538Z,5.99
2024-01-27T00:48:57.650Z,5.99
2024-01-27T00:49:57.635Z,5.99
2024-01-27T00:50:57.839Z,5.97
2024-01-27T00:51:57.893Z,5.95
2024-01-27T00:52:59.514Z,5.97
2024-01-27T00:53:58.303Z,5.95
2024-01-27T00:54:58.401Z,5.95
2024-01-27T00:55:58.681Z,5.92
2024-01-27T00:56:58.777Z,5.91
2024-01-27T00:57:58.986Z,5.92
2024-01-27T00:58:59.168Z,5.91
2024-01-27T00:59:59.380Z,5.91
2024-01-27T01:00:59.658Z,5.90
2024-01-27T01:01:59.715Z,5.91
2024-01-27T01:02:59.965Z,5.92
2024-01-27T01:04:00.095Z,5.87
2024-01-27T01:05:00.185Z,5.84
2024-01-27T01:06:00.422Z,5.83
2024-01-27T01:07:00.526Z,5.81
2024-01-27T01:08:00.706Z,5.80
2024-01-27T01:09:00.934Z,5.80
2024-01-27T01:10:01.083Z,5.76
2024-01-27T01:11:01.275Z,5.76
2024-01-27T01:12:01.414Z,5.73
2024-01-27T01:13:01.615Z,5.73
2024-01-27T01:14:01.759Z,5.73
2024-01-27T01:15:02.022Z,5.70
2024-01-27T01:16:02.072Z,5.70
2024-01-27T01:17:02.284Z,5.67
2024-01-27T01:18:02.590Z,5.65
2024-01-27T01:19:02.755Z,5.64
2024-01-27T01:20:02.930Z,5.59
2024-01-27T01:21:03.062Z,5.58
2024-01-27T01:22:03.168Z,5.58
2024-01-27T01:23:03.367Z,5.58
2024-01-27T01:24:03.575Z,5.59
2024-01-27T01:25:03.764Z,5.58
2024-01-27T01:26:03.947Z,5.56
2024-01-27T01:27:04.505Z,5.58
2024-01-27T01:28:04.286Z,5.59
2024-01-27T01:29:04.514Z,5.61
2024-01-27T01:30:04.604Z,5.59
2024-01-27T01:31:04.791Z,5.61
2024-01-27T01:32:04.997Z,5.59
2024-01-27T01:33:05.365Z,5.58
2024-01-27T01:34:05.448Z,5.55
2024-01-27T01:35:05.501Z,5.54
2024-01-27T01:36:05.716Z,5.55
2024-01-27T01:37:05.938Z,5.56
2024-01-27T01:38:06.025Z,5.58
2024-01-27T01:39:06.138Z,5.55
2024-01-27T01:40:06.326Z,5.54
2024-01-27T01:41:06.515Z,5.55
2024-01-27T01:42:06.734Z,5.55
2024-01-27T01:43:06.872Z,5.56
2024-01-27T01:44:07.077Z,5.55
2024-01-27T01:45:07.255Z,5.58
2024-01-27T01:46:07.389Z,5.56
2024-01-27T01:47:07.565Z,5.56
2024-01-27T01:48:07.853Z,5.56
2024-01-27T01:49:08.016Z,5.55
2024-01-27T01:50:08.112Z,5.55
2024-01-27T01:51:08.330Z,5.51
2024-01-27T01:52:08.511Z,5.51
2024-01-27T01:53:08.666Z,5.52
2024-01-27T01:54:08.887Z,5.52
2024-01-27T01:55:08.995Z,5.51
2024-01-27T01:56:09.170Z,5.51
2024-01-27T01:57:09.403Z,5.49
2024-01-27T01:58:09.569Z,5.49
2024-01-27T01:59:09.698Z,5.46
2024-01-27T02:00:09.979Z,5.44
2024-01-27T02:01:10.103Z,5.44
2024-01-27T02:02:10.224Z,5.47
2024-01-27T02:03:10.415Z,5.51
2024-01-27T02:04:10.573Z,5.52
2024-01-27T02:05:10.730Z,5.51
2024-01-27T02:06:10.955Z,5.51
2024-01-27T02:07:11.034Z,5.52
2024-01-27T02:08:11.223Z,5.55
2024-01-27T02:09:11.438Z,5.59
2024-01-27T02:10:11.599Z,5.61
2024-01-27T02:11:11.781Z,5.62
2024-01-27T02:12:12.004Z,5.61
2024-01-27T02:13:12.182Z,5.62
2024-01-27T02:14:12.379Z,5.59
2024-01-27T02:15:12.568Z,5.62
2024-01-27T02:16:12.742Z,5.65
2024-01-27T02:17:12.929Z,5.69
2024-01-27T02:18:13.219Z,5.70
2024-01-27T02:19:13.457Z,5.72
2024-01-27T02:20:13.528Z,5.69
2024-01-27T02:21:16.357Z,5.70
2024-01-27T02:22:13.871Z,5.69
2024-01-27T02:23:14.070Z,5.70
2024-01-27T02:24:14.311Z,5.70
2024-01-27T02:25:14.457Z,5.72
2024-01-27T02:26:14.629Z,5.72
2024-01-27T02:27:14.795Z,5.70
2024-01-27T02:28:14.979Z,5.73
2024-01-27T02:29:15.198Z,5.73
2024-01-27T02:30:15.392Z,5.70
2024-01-27T02:31:15.559Z,5.70
2024-01-27T02:32:15.756Z,5.70
2024-01-27T02:33:16.001Z,5.70
2024-01-27T02:34:16.256Z,5.70
2024-01-27T02:35:16.173Z,5.72
2024-01-27T02:36:16.400Z,5.73
2024-01-27T02:37:16.468Z,5.73
2024-01-27T02:38:16.657Z,5.73
2024-01-27T02:39:16.925Z,5.73
2024-01-27T02:40:16.971Z,5.74
2024-01-27T02:41:17.160Z,5.73
2024-01-27T02:42:17.343Z,5.74
2024-01-27T02:43:17.526Z,5.72
2024-01-27T02:44:17.718Z,5.72
2024-01-27T02:45:17.965Z,5.70
2024-01-27T02:46:18.096Z,5.69
2024-01-27T02:47:18.289Z,5.67
2024-01-27T02:48:18.716Z,5.67
2024-01-27T02:49:18.733Z,5.65
2024-01-27T02:50:18.793Z,5.64
2024-01-27T02:51:19.005Z,5.61
2024-01-27T02:52:19.181Z,5.56
2024-01-27T02:53:19.368Z,5.54
2024-01-27T02:54:19.573Z,5.52
2024-01-27T02:55:19.717Z,5.47
2024-01-27T02:56:19.916Z,5.46
2024-01-27T02:57:20.123Z,5.44
2024-01-27T02:58:20.290Z,5.44
2024-01-27T02:59:20.466Z,5.41
2024-01-27T03:00:20.724Z,5.40
2024-01-27T03:01:20.784Z,5.43
2024-01-27T03:02:20.923Z,5.38
2024-01-27T03:03:21.246Z,5.36
2024-01-27T03:04:21.237Z,5.34
2024-01-27T03:05:21.446Z,5.36
2024-01-27T03:06:21.581Z,5.34
2024-01-27T03:07:21.647Z,5.34
2024-01-27T03:08:21.872Z,5.34
2024-01-27T03:09:22.026Z,5.36
2024-01-27T03:10:22.217Z,5.34
2024-01-27T03:11:22.385Z,5.33
2024-01-27T03:12:22.659Z,5.29
2024-01-27T03:13:22.707Z,5.26
2024-01-27T03:14:22.914Z,5.25
2024-01-27T03:15:23.141Z,5.25
2024-01-27T03:16:23.317Z,5.20
2024-01-27T03:17:23.547Z,5.16
2024-01-27T03:18:23.959Z,5.19
2024-01-27T03:19:24.064Z,5.20
2024-01-27T03:20:24.137Z,5.20
2024-01-27T03:21:24.366Z,5.20
2024-01-27T03:22:24.474Z,5.23
2024-01-27T03:23:24.672Z,5.26
2024-01-27T03:24:24.936Z,5.26
2024-01-27T03:25:24.994Z,5.25
2024-01-27T03:26:25.242Z,5.23
2024-01-27T03:27:25.430Z,5.22
2024-01-27T03:28:25.616Z,5.22
2024-01-27T03:29:25.773Z,5.22
2024-01-27T03:30:25.954Z,5.18
2024-01-27T03:31:26.106Z,5.19
2024-01-27T03:32:26.322Z,5.19
2024-01-27T03:33:26.631Z,5.16
2024-01-27T03:34:26.893Z,5.18
2024-01-27T03:35:26.808Z,5.16
2024-01-27T03:36:27.109Z,5.13
2024-01-27T03:37:27.180Z,5.15
2024-01-27T03:38:27.405Z,5.13
2024-01-27T03:39:27.635Z,5.15
2024-01-27T03:40:27.735Z,5.15
2024-01-27T03:41:27.893Z,5.18
2024-01-27T03:42:28.205Z,5.16
2024-01-27T03:43:28.204Z,5.12
2024-01-27T03:44:28.411Z,5.10
2024-01-27T03:45:28.679Z,5.07
2024-01-27T03:46:28.756Z,5.05
2024-01-27T03:47:28.971Z,5.05
2024-01-27T03:48:29.474Z,5.04
2024-01-27T03:49:29.839Z,5.02
2024-01-27T03:50:29.453Z,5.02
2024-01-27T03:51:29.695Z,5.02
2024-01-27T03:52:29.863Z,5.02
2024-01-27T03:53:30.072Z,5.02
2024-01-27T03:54:30.306Z,5.02
2024-01-27T03:55:30.370Z,5.02
2024-01-27T03:56:30.621Z,5.01
2024-01-27T03:57:30.825Z,5.01
2024-01-27T03:58:31.053Z,5.00
2024-01-27T03:59:31.198Z,5.01
2024-01-27T04:00:31.405Z,5.04
2024-01-27T04:01:31.620Z,5.05
2024-01-27T04:02:31.669Z,5.04
2024-01-27T04:03:31.954Z,5.02
2024-01-27T04:04:32.213Z,5.04
2024-01-27T04:05:32.271Z,5.04
2024-01-27T04:06:32.532Z,5.02
2024-01-27T04:07:32.582Z,5.01
2024-01-27T04:08:32.809Z,5.00
2024-01-27T04:09:33.184Z,4.95
2024-01-27T04:10:33.234Z,4.92
2024-01-27T04:11:33.308Z,4.90
2024-01-27T04:12:33.683Z,4.89
2024-01-27T04:13:33.695Z,4.87
2024-01-27T04:14:33.940Z,4.89
2024-01-27T04:15:34.236Z,4.90
2024-01-27T04:16:34.291Z,4.92
2024-01-27T04:17:34.499Z,4.97
2024-01-27T04:18:34.887Z,4.98
2024-01-27T04:19:35.061Z,4.97
2024-01-27T04:20:35.106Z,5.00
2024-01-27T04:21:35.332Z,5.01
2024-01-27T04:22:35.508Z,5.02
2024-01-27T04:23:35.703Z,5.02
2024-01-27T04:24:35.923Z,5.02
2024-01-27T04:25:36.083Z,4.97
2024-01-27T04:26:36.290Z,5.00
2024-01-27T04:27:36.541Z,4.97
2024-01-27T04:28:36.744Z,5.00
2024-01-27T04:29:36.815Z,4.98
2024-01-27T04:30:37.030Z,4.95
2024-01-27T04:31:37.248Z,4.94
2024-01-27T04:32:37.416Z,4.92
2024-01-27T04:33:37.889Z,4.90
2024-01-27T04:34:37.889Z,4.94
2024-01-27T04:35:37.982Z,4.94
2024-01-27T04:36:38.265Z,4.94
2024-01-27T04:37:38.297Z,4.92
2024-01-27T04:38:38.503Z,4.94
2024-01-27T04:39:38.771Z,4.94
2024-01-27T04:40:38.967Z,4.90
2024-01-27T04:41:39.159Z,4.90
2024-01-27T04:42:39.380Z,4.90
2024-01-27T04:43:39.560Z,4.87
2024-01-27T04:44:39.763Z,4.89
2024-01-27T04:45:40.012Z,4.87
2024-01-27T04:46:40.178Z,4.86
2024-01-27T04:47:40.369Z,4.86
2024-01-27T04:48:40.807Z,4.89
2024-01-27T04:49:40.942Z,4.84
2024-01-27T04:50:40.984Z,4.86
2024-01-27T04:51:41.237Z,4.84
2024-01-27T04:52:41.386Z,4.83
2024-01-27T04:53:41.457Z,4.84
2024-01-27T04:54:41.711Z,4.84
2024-01-27T04:55:41.791Z,4.86
2024-01-27T04:56:41.985Z,4.87
2024-01-27T04:57:42.193Z,4.89
2024-01-27T04:58:42.386Z,4.92
2024-01-27T04:59:42.565Z,4.94
2024-01-27T05:00:42.907Z,4.95
2024-01-27T05:01:42.960Z,4.97
2024-01-27T05:02:43.185Z,5.01
2024-01-27T05:03:43.438Z,5.04
2024-01-27T05:04:43.549Z,5.05
2024-01-27T05:05:43.777Z,5.08
2024-01-27T05:06:44.053Z,5.10
2024-01-27T05:07:44.114Z,5.13
2024-01-27T05:08:44.348Z,5.15
2024-01-27T05:09:44.504Z,5.15
2024-01-27T05:10:44.709Z,5.16
2024-01-27T05:11:44.895Z,5.18
2024-01-27T05:12:45.085Z,5.16
2024-01-27T05:13:52.285Z,5.18
2024-01-27T05:14:45.424Z,5.18
2024-01-27T05:15:46.307Z,5.20
2024-01-27T05:16:45.858Z,5.20
2024-01-27T05:17:46.044Z,5.22
2024-01-27T05:18:46.373Z,5.25
2024-01-27T05:19:46.541Z,5.25
2024-01-27T05:20:46.592Z,5.25
2024-01-27T05:21:46.785Z,5.26
2024-01-27T05:22:46.955Z,5.28
2024-01-27T05:23:47.147Z,5.28
2024-01-27T05:24:47.326Z,5.29
2024-01-27T05:25:47.511Z,5.31
2024-01-27T05:26:47.706Z,5.29
2024-01-27T05:27:47.925Z,5.29
2024-01-27T05:28:48.137Z,5.31
2024-01-27T05:29:48.232Z,5.29
2024-01-27T05:30:48.419Z,5.31
2024-01-27T05:31:48.588Z,5.31
2024-01-27T05:32:48.968Z,5.29
2024-01-27T05:33:49.117Z,5.33
2024-01-27T05:34:49.199Z,5.33
2024-01-27T05:35:49.331Z,5.33
2024-01-27T05:36:49.492Z,5.34
2024-01-27T05:37:49.665Z,5.37
2024-01-27T05:38:50.870Z,5.37
2024-01-27T05:39:49.999Z,5.37
2024-01-27T05:40:50.194Z,5.37
2024-01-27T05:41:50.445Z,5.37
2024-01-27T05:42:50.505Z,5.36
2024-01-27T05:43:50.695Z,5.36
2024-01-27T05:44:50.983Z,5.34
2024-01-27T05:45:51.016Z,5.33
2024-01-27T05:46:51.173Z,5.33
2024-01-27T05:47:51.498Z,5.34
2024-01-27T05:48:51.573Z,5.34
2024-01-27T05:49:51.777Z,5.33
2024-01-27T05:50:51.897Z,5.33
2024-01-27T05:51:52.057Z,5.33
2024-01-27T05:52:52.231Z,5.31
2024-01-27T05:53:52.430Z,5.31
2024-01-27T05:54:52.594Z,5.31
2024-01-27T05:55:52.761Z,5.29
2024-01-27T05:56:53.026Z,5.31
2024-01-27T05:57:53.180Z,5.33
2024-01-27T05:58:53.374Z,5.34
2024-01-27T05:59:53.610Z,5.31
2024-01-27T06:00:53.891Z,5.34
2024-01-27T06:01:53.975Z,5.34
2024-01-27T06:02:54.171Z,5.38
2024-01-27T06:03:54.444Z,5.41
2024-01-27T06:04:54.488Z,5.43
2024-01-27T06:05:54.742Z,5.41
2024-01-27T06:06:54.918Z,5.40
2024-01-27T06:07:55.110Z,5.40
2024-01-27T06:08:55.142Z,5.41
2024-01-27T06:09:55.306Z,5.40
2024-01-27T06:10:55.507Z,5.41
2024-01-27T06:11:55.725Z,5.41
2024-01-27T06:12:55.811Z,5.44
2024-01-27T06:13:56.006Z,5.44
2024-01-27T06:14:56.196Z,5.43
2024-01-27T06:15:56.370Z,5.44
2024-01-27T06:16:56.559Z,5.46
2024-01-27T06:17:56.852Z,5.47
2024-01-27T06:18:56.938Z,5.49
2024-01-27T06:19:57.149Z,5.47
2024-01-27T06:20:57.267Z,5.52
2024-01-27T06:21:57.365Z,5.52
2024-01-27T06:22:57.539Z,5.52
2024-01-27T06:23:57.753Z,5.55
2024-01-27T06:24:57.882Z,5.55
2024-01-27T06:25:58.075Z,5.55
2024-01-27T06:26:58.281Z,5.54
2024-01-27T06:27:58.430Z,5.54
2024-01-27T06:28:58.600Z,5.56
2024-01-27T06:29:58.828Z,5.55
2024-01-27T06:30:58.981Z,5.54
2024-01-27T06:31:59.171Z,5.54
2024-01-27T06:32:59.550Z,5.54
2024-01-27T06:33:59.673Z,5.55
2024-01-27T06:34:59.819Z,5.56
2024-01-27T06:36:00.083Z,5.58
2024-01-27T06:37:00.065Z,5.58
2024-01-27T06:38:00.276Z,5.58
2024-01-27T06:39:00.525Z,5.56
2024-01-27T06:40:00.566Z,5.58
2024-01-27T06:41:00.748Z,5.58
2024-01-27T06:42:01.028Z,5.56
2024-01-27T06:43:02.985Z,5.55
2024-01-27T06:44:01.258Z,5.55
2024-01-27T06:45:01.468Z,5.55
2024-01-27T06:46:01.648Z,5.56
2024-01-27T06:47:01.828Z,5.54
2024-01-27T06:48:02.240Z,5.55
2024-01-27T06:49:02.324Z,5.55
2024-01-27T06:50:02.349Z,5.56
2024-01-27T06:51:02.533Z,5.55
2024-01-27T06:52:02.743Z,5.55
2024-01-27T06:53:02.963Z,5.56
2024-01-27T06:54:03.065Z,5.55
2024-01-27T06:55:03.228Z,5.55
2024-01-27T06:56:03.437Z,5.54
2024-01-27T06:57:03.658Z,5.54
2024-01-27T06:58:03.731Z,5.54
2024-01-27T06:59:03.898Z,5.54
2024-01-27T07:00:04.140Z,5.54
2024-01-27T07:01:04.443Z,5.55
2024-01-27T07:02:04.458Z,5.55
2024-01-27T07:03:04.799Z,5.55
2024-01-27T07:04:04.950Z,5.56
2024-01-27T07:05:04.918Z,5.58
2024-01-27T07:06:05.219Z,5.58
2024-01-27T07:07:05.373Z,5.59
2024-01-27T07:08:05.384Z,5.59
2024-01-27T07:09:05.597Z,5.58
2024-01-27T07:10:05.739Z,5.58
2024-01-27T07:11:05.928Z,5.59
2024-01-27T07:12:06.146Z,5.58
2024-01-27T07:13:06.316Z,5.59
2024-01-27T07:14:06.514Z,5.59
2024-01-27T07:15:06.801Z,5.59
2024-01-27T07:16:06.912Z,5.61
2024-01-27T07:17:07.090Z,5.61
2024-01-27T07:18:07.386Z,5.61
2024-01-27T07:19:07.483Z,5.59
2024-01-27T07:20:07.590Z,5.62
2024-01-27T07:21:09.475Z,5.62
2024-01-27T07:22:07.858Z,5.62
2024-01-27T07:23:08.052Z,5.62
2024-01-27T07:24:08.256Z,5.64
2024-01-27T07:25:08.399Z,5.64
2024-01-27T07:26:08.635Z,5.69
2024-01-27T07:27:08.813Z,5.69
2024-01-27T07:28:08.894Z,5.69
2024-01-27T07:29:09.111Z,5.69
2024-01-27T07:30:09.323Z,5.69
2024-01-27T07:31:09.399Z,5.70
2024-01-27T07:32:09.572Z,5.70
2024-01-27T07:33:09.863Z,5.72
2024-01-27T07:34:10.039Z,5.72
2024-01-27T07:35:10.147Z,5.73
2024-01-27T07:36:10.311Z,5.74
2024-01-27T07:37:10.473Z,5.74
2024-01-27T07:38:10.641Z,5.76
2024-01-27T07:39:10.873Z,5.76
2024-01-27T07:40:10.910Z,5.77
2024-01-27T07:41:11.116Z,5.76
2024-01-27T07:42:11.403Z,5.79
2024-01-27T07:43:11.501Z,5.79
2024-01-27T07:44:11.802Z,5.81
2024-01-27T07:45:11.917Z,5.81
2024-01-27T07:46:12.095Z,5.80
2024-01-27T07:47:12.244Z,5.81
2024-01-27T07:48:12.563Z,5.81
2024-01-27T07:49:12.737Z,5.81
2024-01-27T07:50:12.853Z,5.81
2024-01-27T07:51:12.999Z,5.83
2024-01-27T07:52:13.187Z,5.84
2024-01-27T07:53:13.365Z,5.84
2024-01-27T07:54:13.599Z,5.87
2024-01-27T07:55:13.757Z,5.84
2024-01-27T07:56:13.979Z,5.88
2024-01-27T07:57:14.155Z,5.88
2024-01-27T07:58:14.313Z,5.91
2024-01-27T07:59:14.491Z,5.91
2024-01-27T08:00:14.684Z,5.92
2024-01-27T08:01:14.826Z,5.94
2024-01-27T08:02:14.989Z,5.97
2024-01-27T08:03:15.272Z,5.97
2024-01-27T08:04:15.455Z,5.97
2024-01-27T08:05:16.442Z,5.95
2024-01-27T08:06:15.701Z,5.95
2024-01-27T08:07:16.047Z,5.98
2024-01-27T08:08:16.059Z,5.99
2024-01-27T08:09:16.281Z,6.02
2024-01-27T08:10:16.486Z,6.02
2024-01-27T08:11:16.653Z,6.05
2024-01-27T08:12:16.849Z,6.05
2024-01-27T08:13:17.015Z,6.05
2024-01-27T08:14:17.211Z,6.05
2024-01-27T08:15:17.538Z,6.05
2024-01-27T08:16:17.626Z,6.07
2024-01-27T08:17:17.779Z,6.06
2024-01-27T08:18:18.081Z,6.07
2024-01-27T08:19:18.184Z,6.09
2024-01-27T08:20:18.344Z,6.12
2024-01-27T08:21:18.570Z,6.10
2024-01-27T08:22:18.734Z,6.10
2024-01-27T08:23:18.960Z,6.15
2024-01-27T08:24:19.145Z,6.15
2024-01-27T08:25:19.335Z,6.15
2024-01-27T08:26:19.507Z,6.16
2024-01-27T08:27:19.687Z,6.19
2024-01-27T08:28:19.865Z,6.19
2024-01-27T08:29:20.039Z,6.20
2024-01-27T08:30:20.392Z,6.22
2024-01-27T08:31:20.376Z,6.26
2024-01-27T08:32:20.656Z,6.28
2024-01-27T08:33:20.821Z,6.28
2024-01-27T08:34:21.081Z,6.28
2024-01-27T08:35:21.170Z,6.29
2024-01-27T08:36:21.330Z,6.31
2024-01-27T08:37:21.503Z,6.31
2024-01-27T08:38:21.696Z,6.31
2024-01-27T08:39:21.905Z,6.32
2024-01-27T08:40:22.042Z,6.34
2024-01-27T08:41:22.223Z,6.36
2024-01-27T08:42:22.454Z,6.38
2024-01-27T08:43:22.605Z,6.36
2024-01-27T08:44:22.783Z,6.39
2024-01-27T08:45:23.036Z,6.39
2024-01-27T08:46:23.213Z,6.39
2024-01-27T08:47:23.280Z,6.39
2024-01-27T08:48:23.645Z,6.39
2024-01-27T08:49:23.781Z,6.43
2024-01-27T08:50:23.791Z,6.43
2024-01-27T08:51:24.073Z,6.46
2024-01-27T08:52:24.139Z,6.47
2024-01-27T08:53:24.343Z,6.49
2024-01-27T08:54:24.542Z,6.50
2024-01-27T08:55:24.714Z,6.49
2024-01-27T08:56:24.891Z,6.50
2024-01-27T08:57:25.130Z,6.54
2024-01-27T08:58:25.300Z,6.57
2024-01-27T08:59:25.466Z,6.59
2024-01-27T09:00:25.809Z,6.59
2024-01-27T09:01:25.796Z,6.59
2024-01-27T09:02:25.955Z,6.59
2024-01-27T09:03:26.189Z,6.60
2024-01-27T09:04:26.306Z,6.64
2024-01-27T09:05:26.450Z,6.64
2024-01-27T09:06:30.591Z,6.67
2024-01-27T09:07:27.769Z,6.70
2024-01-27T09:08:26.980Z,6.71
2024-01-27T09:09:27.199Z,6.71
2024-01-27T09:10:27.288Z,6.70
2024-01-27T09:11:27.461Z,6.74
2024-01-27T09:12:27.683Z,6.74
2024-01-27T09:13:27.854Z,6.72
2024-01-27T09:14:28.034Z,6.74
2024-01-27T09:15:28.292Z,6.74
2024-01-27T09:16:28.333Z,6.75
2024-01-27T09:17:28.491Z,6.82
2024-01-27T09:18:28.972Z,6.80
2024-01-27T09:19:28.869Z,6.82
2024-01-27T09:20:28.906Z,6.82
2024-01-27T09:21:29.349Z,6.77
2024-01-27T09:22:29.180Z,6.78
2024-01-27T09:23:29.468Z,6.78
2024-01-27T09:24:29.520Z,6.82
2024-01-27T09:25:29.704Z,6.80
2024-01-27T09:26:29.889Z,6.82
2024-01-27T09:27:30.158Z,6.82
2024-01-27T09:28:30.216Z,6.85
2024-01-27T09:29:30.625Z,6.82
2024-01-27T09:30:32.577Z,6.77
2024-01-27T09:31:30.797Z,6.74
2024-01-27T09:32:31.094Z,6.74
2024-01-27T09:33:31.470Z,6.74
2024-01-27T09:34:31.428Z,6.75
2024-01-27T09:35:31.480Z,6.77
2024-01-27T09:36:31.718Z,6.74
2024-01-27T09:37:31.753Z,6.71
2024-01-27T09:38:31.945Z,6.74
2024-01-27T09:39:32.083Z,6.74
2024-01-27T09:40:32.246Z,6.77
2024-01-27T09:41:32.404Z,6.78
2024-01-27T09:42:32.587Z,6.77
2024-01-27T09:43:32.772Z,6.74
2024-01-27T09:44:32.900Z,6.74
2024-01-27T09:45:33.103Z,6.77
2024-01-27T09:46:33.258Z,6.78
2024-01-27T09:47:33.572Z,6.82
2024-01-27T09:48:33.798Z,6.83
2024-01-27T09:49:33.932Z,6.82
2024-01-27T09:50:33.925Z,6.80
2024-01-27T09:51:34.132Z,6.78
2024-01-27T09:52:34.278Z,6.78
2024-01-27T09:53:34.467Z,6.82
2024-01-27T09:54:34.659Z,6.78
2024-01-27T09:55:34.817Z,6.74
2024-01-27T09:56:35.019Z,6.77
2024-01-27T09:57:35.274Z,6.78
2024-01-27T09:58:35.330Z,6.77
2024-01-27T09:59:35.525Z,6.78
2024-01-27T10:00:35.762Z,6.82
2024-01-27T10:01:35.872Z,6.85
2024-01-27T10:02:36.093Z,6.82
2024-01-27T10:03:36.181Z,6.85
2024-01-27T10:04:36.282Z,6.82
2024-01-27T10:05:36.453Z,6.82
2024-01-27T10:06:36.678Z,6.83
2024-01-27T10:07:36.767Z,6.86
2024-01-27T10:08:36.865Z,6.86
2024-01-27T10:09:37.126Z,6.92
2024-01-27T10:10:37.212Z,6.95
2024-01-27T10:11:37.399Z,6.92
2024-01-27T10:12:37.591Z,6.89
2024-01-27T10:13:37.795Z,6.86
2024-01-27T10:14:37.843Z,6.86
2024-01-27T10:15:38.078Z,6.93
2024-01-27T10:16:38.098Z,7.04
2024-01-27T10:17:38.309Z,7.10
2024-01-27T10:18:38.603Z,7.10
2024-01-27T10:19:41.641Z,7.07
2024-01-27T10:20:39.665Z,7.05
2024-01-27T10:21:38.880Z,7.07
2024-01-27T10:22:39.032Z,7.13
2024-01-27T10:23:39.236Z,7.14
2024-01-27T10:24:39.584Z,7.18
2024-01-27T10:25:39.580Z,7.14
2024-01-27T10:26:39.752Z,7.15
2024-01-27T10:27:39.952Z,7.25
2024-01-27T10:28:39.980Z,7.31
2024-01-27T10:29:40.155Z,7.32
2024-01-27T10:30:40.360Z,7.28
2024-01-27T10:31:40.480Z,7.31
2024-01-27T10:32:40.670Z,7.33
2024-01-27T10:33:41.064Z,7.39
2024-01-27T10:34:41.005Z,7.37
2024-01-27T10:35:41.332Z,7.37
2024-01-27T10:36:41.292Z,7.43
2024-01-27T10:37:41.349Z,7.48
2024-01-27T10:38:41.509Z,7.48
2024-01-27T10:39:41.727Z,7.50
2024-01-27T10:40:41.848Z,7.51
2024-01-27T10:41:42.027Z,7.50
2024-01-27T10:42:42.252Z,7.43
2024-01-27T10:43:42.408Z,7.43
2024-01-27T10:44:42.608Z,7.43
2024-01-27T10:45:43.148Z,7.46
2024-01-27T10:46:42.910Z,7.41
2024-01-27T10:47:43.215Z,7.43
2024-01-27T10:48:43.433Z,7.46
2024-01-27T10:49:43.572Z,7.50
2024-01-27T10:50:45.728Z,7.55
2024-01-27T10:51:43.727Z,7.56
2024-01-27T10:52:43.880Z,7.53
2024-01-27T10:53:44.012Z,7.50
2024-01-27T10:54:44.236Z,7.37
2024-01-27T10:55:44.384Z,7.33
2024-01-27T10:56:44.558Z,7.33
2024-01-27T10:57:44.739Z,7.33
2024-01-27T10:58:44.881Z,7.28
2024-01-27T10:59:45.039Z,7.31
2024-01-27T11:00:45.292Z,7.32
2024-01-27T11:01:45.404Z,7.33
2024-01-27T11:02:45.467Z,7.33
2024-01-27T11:03:45.708Z,7.37
2024-01-27T11:04:45.802Z,7.41
2024-01-27T11:05:45.999Z,7.47
2024-01-27T11:06:46.171Z,7.58
2024-01-27T11:07:46.347Z,7.64
2024-01-27T11:08:46.495Z,7.62
2024-01-27T11:09:46.740Z,7.51
2024-01-27T11:10:46.867Z,7.47
2024-01-27T11:11:47.031Z,7.44
2024-01-27T11:12:47.184Z,7.47
2024-01-27T11:13:47.371Z,7.44
2024-01-27T11:14:54.718Z,7.40
2024-01-27T11:15:50.367Z,7.39
2024-01-27T11:16:49.494Z,7.44
2024-01-27T11:17:48.136Z,7.48
2024-01-27T11:18:48.230Z,7.53
2024-01-27T11:19:48.478Z,7.56
2024-01-27T11:20:48.505Z,7.58
2024-01-27T11:21:48.702Z,7.59
2024-01-27T11:22:48.864Z,7.61
2024-01-27T11:23:49.177Z,7.61
2024-01-27T11:24:49.216Z,7.59
2024-01-27T11:25:49.454Z,7.61
2024-01-27T11:26:49.499Z,7.55
2024-01-27T11:27:49.669Z,7.59
2024-01-27T11:28:49.856Z,7.61
2024-01-27T11:29:50.038Z,7.55
2024-01-27T11:30:50.216Z,7.47
2024-01-27T11:31:50.552Z,7.46
2024-01-27T11:32:50.571Z,7.41
2024-01-27T11:33:50.874Z,7.43
2024-01-27T11:34:50.802Z,7.46
2024-01-27T11:35:50.856Z,7.48
2024-01-27T11:36:51.043Z,7.50
2024-01-27T11:37:51.205Z,7.46
2024-01-27T11:38:51.386Z,7.46
2024-01-27T11:39:51.582Z,7.47
2024-01-27T11:40:51.717Z,7.50
2024-01-27T11:41:51.874Z,7.48
2024-01-27T11:42:52.056Z,7.46
2024-01-27T11:43:52.244Z,7.47
2024-01-27T11:44:52.463Z,7.47
2024-01-27T11:45:52.592Z,7.43
2024-01-27T11:46:52.763Z,7.40
2024-01-27T11:47:53.009Z,7.47
2024-01-27T11:48:53.238Z,7.55
2024-01-27T11:49:53.294Z,7.50
2024-01-27T11:50:53.453Z,7.46
2024-01-27T11:51:53.594Z,7.48
2024-01-27T11:52:53.773Z,7.53
2024-01-27T11:53:54.055Z,7.53
2024-01-27T11:54:54.102Z,7.55
2024-01-27T11:55:54.296Z,7.53
2024-01-27T11:56:54.530Z,7.62
2024-01-27T11:57:54.574Z,7.69
2024-01-27T11:58:54.786Z,7.72
2024-01-27T11:59:55.082Z,7.69
2024-01-27T12:00:55.081Z,7.70
2024-01-27T12:01:55.267Z,7.66
2024-01-27T12:02:55.272Z,7.58
2024-01-27T12:03:55.408Z,7.53
2024-01-27T12:04:55.485Z,7.55
2024-01-27T12:05:55.692Z,7.61
2024-01-27T12:06:56.393Z,7.62
2024-01-27T12:07:55.932Z,7.61
2024-01-27T12:08:56.150Z,7.64
2024-01-27T12:09:56.308Z,7.70
2024-01-27T12:10:56.479Z,7.72
2024-01-27T12:11:56.694Z,7.72
2024-01-27T12:12:56.863Z,7.78
2024-01-27T12:13:57.029Z,7.83
2024-01-27T12:14:57.254Z,7.81
2024-01-27T12:15:57.525Z,7.81
2024-01-27T12:16:57.598Z,7.83
2024-01-27T12:17:57.881Z,7.85
2024-01-27T12:18:58.041Z,7.69
2024-01-27T12:19:58.231Z,7.66
2024-01-27T12:20:58.224Z,7.64
2024-01-27T12:21:58.361Z,7.61
2024-01-27T12:22:58.526Z,7.58
2024-01-27T12:24:00.311Z,7.62
2024-01-27T12:24:58.870Z,7.64
2024-01-27T12:25:59.025Z,7.75
2024-01-27T12:26:59.240Z,7.77
2024-01-27T12:28:00.017Z,7.74
2024-01-27T12:28:59.770Z,7.67
2024-01-27T12:30:08.927Z,7.61
2024-01-27T12:31:09.729Z,7.59
2024-01-27T12:32:09.161Z,7.61
2024-01-27T12:33:09.743Z,7.69
2024-01-27T12:34:09.632Z,7.62
2024-01-27T12:35:09.980Z,8.11
2024-01-27T12:36:09.874Z,8.06
2024-01-27T12:37:09.789Z,8.44
2024-01-27T12:38:09.978Z,8.31
2024-01-27T12:39:10.199Z,8.27
2024-01-27T12:40:10.345Z,8.21
2024-01-27T12:41:10.488Z,8.41
2024-01-27T12:42:10.728Z,8.64
2024-01-27T12:43:10.842Z,8.59
2024-01-27T12:44:11.029Z,8.54
2024-01-27T12:45:11.226Z,8.34
2024-01-27T12:46:11.264Z,8.32
2024-01-27T12:47:11.436Z,8.31
2024-01-27T12:48:11.698Z,8.61
2024-01-27T12:49:11.889Z,9.29
2024-01-27T12:50:12.214Z,9.34
2024-01-27T12:51:11.945Z,9.08
2024-01-27T12:52:12.065Z,8.82
2024-01-27T12:53:12.232Z,8.87
2024-01-27T12:54:12.471Z,8.72
2024-01-27T12:55:12.466Z,8.75
2024-01-27T12:56:12.606Z,8.84
2024-01-27T12:57:12.840Z,8.79
2024-01-27T12:58:12.870Z,8.60
2024-01-27T12:59:13.025Z,8.54
2024-01-27T13:00:13.314Z,8.46
2024-01-27T13:01:13.445Z,8.32
2024-01-27T13:02:13.600Z,8.27
2024-01-27T13:03:13.671Z,8.21
2024-01-27T13:04:13.872Z,8.13
2024-01-27T13:05:13.966Z,8.06
2024-01-27T13:06:14.722Z,8.02
2024-01-27T13:07:14.250Z,7.96
2024-01-27T13:08:14.440Z,7.84
2024-01-27T13:09:14.591Z,7.78
2024-01-27T13:10:14.777Z,7.69
2024-01-27T13:11:14.832Z,7.58
2024-01-27T13:12:15.063Z,7.59
2024-01-27T13:13:15.093Z,7.61
2024-01-27T13:14:15.286Z,7.67
2024-01-27T13:15:16.013Z,7.66
2024-01-27T13:16:15.476Z,7.69
2024-01-27T13:17:15.666Z,7.75
2024-01-27T13:18:16.058Z,7.80
2024-01-27T13:19:16.089Z,7.83
2024-01-27T13:20:19.553Z,7.84
2024-01-27T13:21:16.244Z,7.84